Time;durP1;ratioP1;P1;durP2;ratioP2;P2;SDS_P1;SDS_P2;PMS_P1;PMS_P2;Temp;Humidity;BMP_temperature;BMP_pressure;BME280_temperature;BME280_humidity;BME280_pressure;Samples;Min_cycle;Max_cycle;Signal;HPM_P1;HPM_P2
2024/01/01 00:02:10;;;;;;;24.90;22.87;;;;;;;;;;5091788;28;20453;-76
2024/01/01 00:04:37;;;;;;;26.33;24.43;;;;;;;;;;5092636;28;20502;-75
2024/01/01 00:07:05;;;;;;;26.07;24.17;;;;;;;;;;5092320;28;21164;-75
2024/01/01 00:09:32;;;;;;;26.00;23.87;;;;;;;;;;5092139;28;21043;-76
2024/01/01 00:11:59;;;;;;;23.10;21.60;;;;;;;;;;5091712;28;20506;-75
2024/01/01 00:14:26;;;;;;;25.40;23.37;;;;;;;;;;5092672;28;20905;-76
2024/01/01 00:16:53;;;;;;;25.57;23.60;;;;;;;;;;5092484;28;20802;-75
2024/01/01 00:19:20;;;;;;;25.63;23.83;;;;;;;;;;5091948;28;20463;-75
2024/01/01 00:21:47;;;;;;;23.43;21.93;;;;;;;;;;5091605;28;20445;-76
2024/01/01 00:24:16;;;;;;;23.70;22.20;;;;;;;;;;5092029;28;20448;-76
2024/01/01 00:26:43;;;;;;;26.60;24.70;;;;;;;;;;5091881;28;20476;-75
2024/01/01 00:29:10;;;;;;;22.80;21.20;;;;;;;;;;5091899;28;20448;-76
2024/01/01 00:31:39;;;;;;;26.50;24.50;;;;;;;;;;5090934;28;20465;-76
2024/01/01 00:34:06;;;;;;;25.73;24.03;;;;;;;;;;5092004;28;20457;-75
2024/01/01 00:36:33;;;;;;;23.50;22.00;;;;;;;;;;5091405;28;20533;-75
2024/01/01 00:39:00;;;;;;;19.97;18.77;;;;;;;;;;5091405;28;20953;-75
2024/01/01 00:41:28;;;;;;;22.60;21.10;;;;;;;;;;5090599;28;20471;-75
2024/01/01 00:43:55;;;;;;;24.57;22.63;;;;;;;;;;5091345;28;20423;-75
2024/01/01 00:46:22;;;;;;;23.03;21.70;;;;;;;;;;5091522;28;20469;-76
2024/01/01 00:48:50;;;;;;;21.20;19.90;;;;;;;;;;5091712;28;20444;-75
2024/01/01 00:51:17;;;;;;;21.03;19.83;;;;;;;;;;5090785;28;20450;-76
2024/01/01 00:53:44;;;;;;;21.07;19.50;;;;;;;;;;5092064;28;20473;-75
2024/01/01 00:56:11;;;;;;;20.40;19.13;;;;;;;;;;5091362;28;20994;-75
2024/01/01 00:58:39;;;;;;;20.40;19.20;;;;;;;;;;5091544;28;20441;-75
2024/01/01 01:01:07;;;;;;;20.40;19.20;;;;;;;;;;5090385;28;20472;-76
2024/01/01 01:03:35;;;;;;;20.30;18.90;;;;;;;;;;5091601;28;20514;-75
2024/01/01 01:06:02;;;;;;;19.57;18.00;;;;;;;;;;5091157;28;20449;-76
2024/01/01 01:08:29;;;;;;;20.83;19.50;;;;;;;;;;5090780;28;20804;-75
2024/01/01 01:10:56;;;;;;;21.50;20.20;;;;;;;;;;5090835;28;20857;-75
2024/01/01 01:13:23;;;;;;;18.23;17.43;;;;;;;;;;5091453;28;20501;-76
2024/01/01 01:15:52;;;;;;;21.00;19.70;;;;;;;;;;5091247;28;20419;-75
2024/01/01 01:18:19;;;;;;;20.27;18.87;;;;;;;;;;5090423;28;20515;-75
2024/01/01 01:20:48;;;;;;;21.20;19.80;;;;;;;;;;5090391;28;20485;-75
2024/01/01 01:23:15;;;;;;;21.93;20.37;;;;;;;;;;5091149;28;20540;-75
2024/01/01 01:25:44;;;;;;;20.67;19.17;;;;;;;;;;5091090;28;20858;-76
2024/01/01 01:28:11;;;;;;;21.50;20.17;;;;;;;;;;5089909;28;20537;-77
2024/01/01 01:30:37;;;;;;;22.23;20.63;;;;;;;;;;5090102;28;20472;-76
2024/01/01 01:33:06;;;;;;;21.33;19.93;;;;;;;;;;5090794;28;20510;-76
2024/01/01 01:35:33;;;;;;;19.40;18.40;;;;;;;;;;5090923;28;20449;-75
2024/01/01 01:38:00;;;;;;;20.97;19.40;;;;;;;;;;5090487;28;20521;-75
2024/01/01 01:40:27;;;;;;;19.80;18.70;;;;;;;;;;5089907;28;20512;-76
2024/01/01 01:42:54;;;;;;;20.33;18.87;;;;;;;;;;5090814;28;20472;-75
2024/01/01 01:45:22;;;;;;;22.47;20.90;;;;;;;;;;5090761;28;20432;-75
2024/01/01 01:47:49;;;;;;;22.73;21.03;;;;;;;;;;5090491;28;20447;-75
2024/01/01 01:50:18;;;;;;;21.83;20.23;;;;;;;;;;5090388;28;20461;-75
2024/01/01 01:52:45;;;;;;;21.83;20.30;;;;;;;;;;5089973;28;20474;-76
2024/01/01 01:55:13;;;;;;;20.00;18.90;;;;;;;;;;5090859;28;20476;-76
2024/01/01 01:57:40;;;;;;;23.07;21.13;;;;;;;;;;5090386;28;20465;-76
2024/01/01 02:00:08;;;;;;;21.73;20.23;;;;;;;;;;5090011;28;20963;-76
2024/01/01 02:02:36;;;;;;;22.33;20.60;;;;;;;;;;5089961;28;20456;-75
2024/01/01 02:05:03;;;;;;;23.87;21.87;;;;;;;;;;5090599;28;20448;-75
2024/01/01 02:07:32;;;;;;;19.77;18.67;;;;;;;;;;5090347;28;20512;-75
2024/01/01 02:09:59;;;;;;;21.23;19.63;;;;;;;;;;5090272;28;20468;-75
2024/01/01 02:12:26;;;;;;;21.27;19.87;;;;;;;;;;5089484;28;20911;-75
2024/01/01 02:14:53;;;;;;;22.23;20.83;;;;;;;;;;5081555;28;20510;-76
2024/01/01 02:17:20;;;;;;;22.40;20.80;;;;;;;;;;5075347;28;20527;-75
2024/01/01 02:19:48;;;;;;;19.83;18.80;;;;;;;;;;5074534;28;20441;-75
2024/01/01 02:22:15;;;;;;;20.10;18.83;;;;;;;;;;5089779;28;20982;-74
2024/01/01 02:24:43;;;;;;;21.20;19.90;;;;;;;;;;5090231;28;20465;-74
2024/01/01 02:27:10;;;;;;;22.33;20.63;;;;;;;;;;5075880;28;20474;-74
2024/01/01 02:29:37;;;;;;;21.27;19.90;;;;;;;;;;5070166;28;21240;-75
2024/01/01 02:32:04;;;;;;;21.43;20.00;;;;;;;;;;5069504;28;21005;-75
2024/01/01 02:34:31;;;;;;;21.97;20.40;;;;;;;;;;5070578;28;20496;-74
2024/01/01 02:36:58;;;;;;;23.10;21.50;;;;;;;;;;5070320;28;20527;-76
2024/01/01 02:39:25;;;;;;;20.87;19.73;;;;;;;;;;5083501;28;20980;-74
2024/01/01 02:41:53;;;;;;;19.47;18.37;;;;;;;;;;5093483;28;20488;-74
2024/01/01 02:44:20;;;;;;;20.80;19.40;;;;;;;;;;5091507;28;21006;-74
2024/01/01 02:46:47;;;;;;;20.93;19.47;;;;;;;;;;5084034;28;21113;-75
2024/01/01 02:49:14;;;;;;;20.23;19.00;;;;;;;;;;5084038;28;20478;-74
2024/01/01 02:51:43;;;;;;;21.87;20.10;;;;;;;;;;5092794;28;20502;-74
2024/01/01 02:54:10;;;;;;;21.20;19.70;;;;;;;;;;5088043;28;20432;-74
2024/01/01 02:56:37;;;;;;;23.23;21.37;;;;;;;;;;5073609;28;20469;-75
2024/01/01 02:59:05;;;;;;;19.33;18.33;;;;;;;;;;5077980;28;20557;-74
2024/01/01 03:01:32;;;;;;;21.27;19.67;;;;;;;;;;5079758;28;20620;-74
2024/01/01 03:03:59;;;;;;;20.90;19.50;;;;;;;;;;5093235;28;20452;-74
2024/01/01 03:06:26;;;;;;;19.83;18.60;;;;;;;;;;5092797;28;20458;-75
2024/01/01 03:08:53;;;;;;;21.53;20.07;;;;;;;;;;5078222;28;20942;-74
2024/01/01 03:11:20;;;;;;;20.80;19.40;;;;;;;;;;5079119;28;20802;-74
2024/01/01 03:13:48;;;;;;;19.53;18.20;;;;;;;;;;5093040;28;20564;-74
2024/01/01 03:16:16;;;;;;;20.53;19.40;;;;;;;;;;5092971;28;20475;-75
2024/01/01 03:18:43;;;;;;;20.07;18.73;;;;;;;;;;5093629;28;20427;-74
2024/01/01 03:21:10;;;;;;;21.33;19.67;;;;;;;;;;5092788;28;20455;-75
2024/01/01 03:23:37;;;;;;;20.57;19.40;;;;;;;;;;5092968;28;20448;-74
2024/01/01 03:26:04;;;;;;;22.33;20.80;;;;;;;;;;5092671;28;20850;-74
2024/01/01 03:28:31;;;;;;;22.70;20.77;;;;;;;;;;5092969;28;20985;-74
2024/01/01 03:31:00;;;;;;;21.03;19.67;;;;;;;;;;5092235;28;20825;-75
2024/01/01 03:33:29;;;;;;;20.60;19.30;;;;;;;;;;5092683;28;20461;-74
2024/01/01 03:35:56;;;;;;;20.57;19.37;;;;;;;;;;5087453;28;20468;-75
2024/01/01 03:38:23;;;;;;;20.40;19.10;;;;;;;;;;5092020;28;20496;-74
2024/01/01 03:40:50;;;;;;;20.47;19.17;;;;;;;;;;5092065;28;20516;-74
2024/01/01 03:43:17;;;;;;;20.33;19.13;;;;;;;;;;5092522;28;20899;-74
2024/01/01 03:45:44;;;;;;;18.87;17.90;;;;;;;;;;5092630;28;20419;-74
2024/01/01 03:48:12;;;;;;;21.13;19.93;;;;;;;;;;5092564;28;20476;-74
2024/01/01 03:50:40;;;;;;;19.43;18.40;;;;;;;;;;5086676;28;21262;-74
2024/01/01 03:53:07;;;;;;;19.07;17.70;;;;;;;;;;5072481;28;21033;-74
2024/01/01 03:55:34;;;;;;;19.03;17.87;;;;;;;;;;5071127;28;21083;-74
2024/01/01 03:58:01;;;;;;;20.37;18.83;;;;;;;;;;5071994;28;21178;-74
2024/01/01 04:00:28;;;;;;;19.33;18.33;;;;;;;;;;5076881;28;20457;-75
2024/01/01 04:02:55;;;;;;;18.03;17.23;;;;;;;;;;5092239;28;20426;-74
2024/01/01 04:05:22;;;;;;;19.23;17.83;;;;;;;;;;5092376;28;20521;-74
2024/01/01 04:07:51;;;;;;;19.20;18.00;;;;;;;;;;5091520;28;21060;-74
2024/01/01 04:10:18;;;;;;;20.00;18.50;;;;;;;;;;5092090;28;20514;-74
2024/01/01 04:12:45;;;;;;;18.00;16.90;;;;;;;;;;5091863;28;20452;-75
2024/01/01 04:15:12;;;;;;;18.97;17.97;;;;;;;;;;5092106;28;20974;-74
2024/01/01 04:17:39;;;;;;;18.67;17.57;;;;;;;;;;5091897;28;20871;-74
2024/01/01 04:20:10;;;;;;;18.23;17.13;;;;;;;;;;5091816;28;20491;-74
2024/01/01 04:22:37;;;;;;;19.03;17.93;;;;;;;;;;5091056;28;20498;-74
2024/01/01 04:25:05;;;;;;;17.97;16.93;;;;;;;;;;5091180;28;20469;-74
2024/01/01 04:27:32;;;;;;;18.90;17.67;;;;;;;;;;5091476;28;20472;-75
2024/01/01 04:29:59;;;;;;;19.30;18.23;;;;;;;;;;5080649;28;20499;-74
2024/01/01 04:32:26;;;;;;;19.20;18.13;;;;;;;;;;5070645;28;20503;-75
2024/01/01 04:34:53;;;;;;;18.23;17.43;;;;;;;;;;5071543;28;20461;-74
2024/01/01 04:37:20;;;;;;;17.93;17.20;;;;;;;;;;5072783;28;20481;-74
2024/01/01 04:39:47;;;;;;;17.73;17.00;;;;;;;;;;5071719;28;20456;-75
2024/01/01 04:42:15;;;;;;;19.57;18.67;;;;;;;;;;5070925;28;20492;-75
2024/01/01 04:44:42;;;;;;;19.80;18.70;;;;;;;;;;5090642;28;20506;-75
2024/01/01 04:47:09;;;;;;;18.60;17.70;;;;;;;;;;5091431;28;20461;-74
2024/01/01 04:49:36;;;;;;;18.40;17.40;;;;;;;;;;5091478;28;20445;-74
2024/01/01 04:52:03;;;;;;;18.07;17.20;;;;;;;;;;5090891;28;20440;-74
2024/01/01 04:54:30;;;;;;;17.20;16.50;;;;;;;;;;5091461;28;20419;-74
2024/01/01 04:56:57;;;;;;;17.67;16.80;;;;;;;;;;5090756;28;20506;-74
2024/01/01 04:59:26;;;;;;;17.40;16.50;;;;;;;;;;5091454;28;20451;-74
2024/01/01 05:01:53;;;;;;;17.87;16.87;;;;;;;;;;5089796;28;20542;-74
2024/01/01 05:04:20;;;;;;;18.27;16.80;;;;;;;;;;5091136;28;20506;-74
2024/01/01 05:06:47;;;;;;;17.27;16.20;;;;;;;;;;5090756;28;20464;-74
2024/01/01 05:09:14;;;;;;;17.40;16.47;;;;;;;;;;5090794;28;20915;-74
2024/01/01 05:11:41;;;;;;;18.10;16.23;;;;;;;;;;5090802;28;20448;-75
2024/01/01 05:14:08;;;;;;;16.40;15.60;;;;;;;;;;5090744;28;21011;-75
2024/01/01 05:16:39;;;;;;;17.33;16.30;;;;;;;;;;5091288;28;20539;-75
2024/01/01 05:19:06;;;;;;;17.43;16.60;;;;;;;;;;5090939;28;20429;-75
2024/01/01 05:21:33;;;;;;;18.33;17.43;;;;;;;;;;5089384;28;20577;-74
2024/01/01 05:24:00;;;;;;;18.50;17.53;;;;;;;;;;5090973;28;20437;-74
2024/01/01 05:26:27;;;;;;;17.40;16.20;;;;;;;;;;5090763;28;20465;-75
2024/01/01 05:28:53;;;;;;;16.30;15.50;;;;;;;;;;5075444;28;20428;-75
2024/01/01 05:31:21;;;;;;;19.13;16.67;;;;;;;;;;5069214;28;21060;-75
2024/01/01 05:33:49;;;;;;;16.80;16.10;;;;;;;;;;5088755;28;21244;-75
2024/01/01 05:36:16;;;;;;;17.53;16.20;;;;;;;;;;5085818;28;20519;-75
2024/01/01 05:38:43;;;;;;;18.13;17.13;;;;;;;;;;5074147;28;20457;-75
2024/01/01 05:41:11;;;;;;;17.60;16.67;;;;;;;;;;5089493;28;20995;-75
2024/01/01 05:43:38;;;;;;;17.83;16.27;;;;;;;;;;5090131;28;20488;-74
2024/01/01 05:46:05;;;;;;;16.30;15.50;;;;;;;;;;5089696;28;20510;-75
2024/01/01 05:48:32;;;;;;;17.23;16.43;;;;;;;;;;5088293;28;20449;-74
2024/01/01 05:51:01;;;;;;;17.37;16.13;;;;;;;;;;5082325;28;20477;-74
2024/01/01 05:53:28;;;;;;;17.00;16.00;;;;;;;;;;5069535;28;20917;-74
2024/01/01 05:55:55;;;;;;;18.77;17.20;;;;;;;;;;5078794;28;20535;-74
2024/01/01 05:58:22;;;;;;;17.07;15.97;;;;;;;;;;5073025;28;20945;-74
2024/01/01 06:00:49;;;;;;;16.07;15.47;;;;;;;;;;5089271;28;20830;-74
2024/01/01 06:03:16;;;;;;;17.37;16.50;;;;;;;;;;5090000;28;20445;-74
2024/01/01 06:05:43;;;;;;;17.67;16.50;;;;;;;;;;5090076;28;20474;-74
2024/01/01 06:08:11;;;;;;;15.80;15.10;;;;;;;;;;5089763;28;20472;-74
2024/01/01 06:10:38;;;;;;;17.10;16.20;;;;;;;;;;5088472;28;20835;-74
2024/01/01 06:13:05;;;;;;;17.17;16.27;;;;;;;;;;5089567;28;20437;-74
2024/01/01 06:15:32;;;;;;;16.30;15.60;;;;;;;;;;5089919;28;20498;-74
2024/01/01 06:17:59;;;;;;;17.90;16.83;;;;;;;;;;5089896;28;20472;-74
2024/01/01 06:20:26;;;;;;;16.63;15.63;;;;;;;;;;5089297;28;20526;-74
2024/01/01 06:22:55;;;;;;;17.70;16.50;;;;;;;;;;5086231;28;20460;-74
2024/01/01 06:25:23;;;;;;;16.83;15.83;;;;;;;;;;5069642;28;20499;-74
2024/01/01 06:27:50;;;;;;;17.83;16.70;;;;;;;;;;5069845;28;20551;-74
2024/01/01 06:30:18;;;;;;;18.13;16.90;;;;;;;;;;5069742;28;20420;-75
2024/01/01 06:32:45;;;;;;;17.97;16.60;;;;;;;;;;5069041;28;20953;-74
2024/01/01 06:35:12;;;;;;;16.73;15.87;;;;;;;;;;5069864;28;20467;-74
2024/01/01 06:37:39;;;;;;;17.80;16.80;;;;;;;;;;5069700;28;20461;-74
2024/01/01 06:40:07;;;;;;;17.77;16.57;;;;;;;;;;5079935;28;20451;-75
2024/01/01 06:42:35;;;;;;;17.77;16.97;;;;;;;;;;5086705;28;20495;-75
2024/01/01 06:45:03;;;;;;;17.67;16.60;;;;;;;;;;5085378;28;20449;-74
2024/01/01 06:47:30;;;;;;;19.07;17.60;;;;;;;;;;5089547;28;20499;-74
2024/01/01 06:49:57;;;;;;;17.07;15.90;;;;;;;;;;5085092;28;20602;-74
2024/01/01 06:52:24;;;;;;;19.07;17.40;;;;;;;;;;5069150;28;20434;-74
2024/01/01 06:54:51;;;;;;;18.90;17.43;;;;;;;;;;5075400;28;20513;-74
2024/01/01 06:57:18;;;;;;;17.37;16.37;;;;;;;;;;5089155;28;20503;-74
2024/01/01 06:59:46;;;;;;;17.60;16.50;;;;;;;;;;5088948;28;20936;-74
2024/01/01 07:02:13;;;;;;;18.57;17.57;;;;;;;;;;5079465;28;20553;-74
2024/01/01 07:04:41;;;;;;;17.57;16.43;;;;;;;;;;5081246;28;20450;-74
2024/01/01 07:07:08;;;;;;;17.30;16.30;;;;;;;;;;5069161;28;20474;-74
2024/01/01 07:09:35;;;;;;;18.03;16.73;;;;;;;;;;5069106;28;20434;-74
2024/01/01 07:12:18;;;;;;;17.67;16.77;;;;;;;;;;5087361;28;20474;-75
2024/01/01 07:14:46;;;;;;;17.73;16.73;;;;;;;;;;5071180;28;20574;-74
2024/01/01 07:17:13;;;;;;;19.03;17.30;;;;;;;;;;5069289;28;20477;-74
2024/01/01 07:19:40;;;;;;;18.20;17.20;;;;;;;;;;5069149;28;20465;-74
2024/01/01 07:22:07;;;;;;;17.83;16.87;;;;;;;;;;5075551;28;20544;-74
2024/01/01 07:24:34;;;;;;;18.87;17.77;;;;;;;;;;5089507;28;20496;-74
2024/01/01 07:27:01;;;;;;;20.93;19.60;;;;;;;;;;5092463;28;20443;-74
2024/01/01 07:29:30;;;;;;;20.50;19.10;;;;;;;;;;5092606;28;20456;-74
2024/01/01 07:31:58;;;;;;;21.47;19.80;;;;;;;;;;5092235;28;20502;-74
2024/01/01 07:34:26;;;;;;;21.13;19.20;;;;;;;;;;5092555;28;20456;-74
2024/01/01 07:36:54;;;;;;;21.97;20.53;;;;;;;;;;5092762;28;20468;-74
2024/01/01 07:39:23;;;;;;;20.57;19.03;;;;;;;;;;5092169;28;20480;-75
2024/01/01 07:41:50;;;;;;;22.13;20.43;;;;;;;;;;5092233;28;20516;-74
2024/01/01 07:44:17;;;;;;;23.57;21.93;;;;;;;;;;5092526;28;20453;-74
2024/01/01 07:46:44;;;;;;;22.80;21.07;;;;;;;;;;5074946;28;20519;-75
2024/01/01 07:49:13;;;;;;;23.70;22.13;;;;;;;;;;5092104;28;21195;-75
2024/01/01 07:51:40;;;;;;;26.53;24.63;;;;;;;;;;5091960;28;20448;-75
2024/01/01 07:54:07;;;;;;;22.43;20.80;;;;;;;;;;5092578;28;20456;-75
2024/01/01 07:56:36;;;;;;;24.37;22.57;;;;;;;;;;5082804;28;20485;-75
2024/01/01 07:59:03;;;;;;;25.33;23.23;;;;;;;;;;5092395;28;20893;-75
2024/01/01 08:01:30;;;;;;;23.67;21.87;;;;;;;;;;5091930;28;20916;-75
2024/01/01 08:03:57;;;;;;;22.37;21.27;;;;;;;;;;5092451;28;20530;-75
2024/01/01 08:06:25;;;;;;;23.75;21.92;;;;;;;;;;5092012;28;20464;-74
2024/01/01 08:08:52;;;;;;;23.00;21.10;;;;;;;;;;5092027;28;20221;-74
2024/01/01 08:11:20;;;;;;;26.43;23.33;;;;;;;;;;5091364;28;20461;-75
2024/01/01 08:13:47;;;;;;;21.97;20.47;;;;;;;;;;5092071;28;20445;-75
2024/01/01 08:16:18;;;;;;;23.93;22.60;;;;;;;;;;5091676;28;20453;-75
2024/01/01 08:18:46;;;;;;;24.58;22.63;;;;;;;;;;5091654;28;20441;-74
2024/01/01 08:21:13;;;;;;;20.90;19.70;;;;;;;;;;5091318;28;20722;-74
2024/01/01 08:23:41;;;;;;;20.97;19.60;;;;;;;;;;5088679;28;20481;-79
2024/01/01 08:26:08;;;;;;;19.70;18.40;;;;;;;;;;5094825;28;20427;-81
2024/01/01 08:28:35;;;;;;;20.87;19.10;;;;;;;;;;5099117;28;20412;-81
2024/01/01 08:31:02;;;;;;;18.70;17.47;;;;;;;;;;5098212;28;20436;-82
2024/01/01 08:33:29;;;;;;;19.20;17.80;;;;;;;;;;5096304;28;21115;-80
2024/01/01 08:35:56;;;;;;;19.13;17.53;;;;;;;;;;5079653;28;20534;-75
2024/01/01 08:38:23;;;;;;;20.00;18.57;;;;;;;;;;5092717;28;21051;-82
2024/01/01 08:40:52;;;;;;;17.93;16.83;;;;;;;;;;5093339;28;20831;-82
2024/01/01 08:43:19;;;;;;;19.07;17.60;;;;;;;;;;5079396;28;20787;-81
2024/01/01 08:45:46;;;;;;;19.17;18.00;;;;;;;;;;5083341;28;20518;-80
2024/01/01 08:48:13;;;;;;;17.50;16.50;;;;;;;;;;5090965;28;20468;-81
2024/01/01 08:50:40;;;;;;;18.83;17.40;;;;;;;;;;5088439;28;20736;-83
2024/01/01 08:53:07;;;;;;;17.50;16.50;;;;;;;;;;5095947;28;20210;-75
2024/01/01 08:55:34;;;;;;;18.70;17.60;;;;;;;;;;5086281;28;20436;-76
2024/01/01 08:58:02;;;;;;;19.13;17.23;;;;;;;;;;5070736;28;20950;-75
2024/01/01 09:00:29;;;;;;;18.57;17.37;;;;;;;;;;5070244;28;20942;-75
2024/01/01 09:02:56;;;;;;;17.10;16.30;;;;;;;;;;5070746;28;20981;-75
2024/01/01 09:05:23;;;;;;;16.83;15.93;;;;;;;;;;5070949;28;20857;-75
2024/01/01 09:07:50;;;;;;;17.83;16.83;;;;;;;;;;5086067;28;20488;-75
2024/01/01 09:10:17;;;;;;;18.37;17.10;;;;;;;;;;5090096;28;20465;-75
2024/01/01 09:12:45;;;;;;;17.83;16.90;;;;;;;;;;5091482;28;20453;-76
2024/01/01 09:15:15;;;;;;;22.77;20.97;;;;;;;;;;5090990;28;20440;-76
2024/01/01 09:17:43;;;;;;;18.20;17.10;;;;;;;;;;5091133;28;20469;-75
2024/01/01 09:20:10;;;;;;;18.50;17.20;;;;;;;;;;5091340;28;20539;-76
2024/01/01 09:22:37;;;;;;;18.20;17.20;;;;;;;;;;5088775;28;20475;-76
2024/01/01 09:25:04;;;;;;;21.03;19.37;;;;;;;;;;5090773;28;20457;-76
2024/01/01 09:27:31;;;;;;;19.93;18.73;;;;;;;;;;5090853;28;20530;-76
2024/01/01 09:29:58;;;;;;;28.23;26.03;;;;;;;;;;5090756;28;20935;-76
2024/01/01 09:32:26;;;;;;;25.70;23.63;;;;;;;;;;5090260;28;20441;-76
2024/01/01 09:34:53;;;;;;;18.80;17.87;;;;;;;;;;5090713;28;20929;-76
2024/01/01 09:37:20;;;;;;;21.43;20.10;;;;;;;;;;5089020;28;20465;-76
2024/01/01 09:39:47;;;;;;;17.77;16.87;;;;;;;;;;5090024;28;20518;-76
2024/01/01 09:42:14;;;;;;;16.70;16.10;;;;;;;;;;5090070;28;20420;-76
2024/01/01 09:44:41;;;;;;;20.93;18.67;;;;;;;;;;5090457;28;20480;-76
2024/01/01 09:47:08;;;;;;;18.10;17.10;;;;;;;;;;5089990;28;20473;-76
2024/01/01 09:49:37;;;;;;;19.03;17.50;;;;;;;;;;5090072;28;20501;-76
2024/01/01 09:52:05;;;;;;;17.83;16.90;;;;;;;;;;5090351;28;20452;-76
2024/01/01 09:54:33;;;;;;;18.13;16.90;;;;;;;;;;5090515;28;20471;-76
2024/01/01 09:57:00;;;;;;;18.63;17.40;;;;;;;;;;5089252;28;20517;-76
2024/01/01 09:59:34;;;;;;;18.57;17.37;;;;;;;;;;5078404;28;20503;-83
2024/01/01 10:02:05;;;;;;;20.40;18.47;;;;;;;;;;5095219;28;20504;-83
2024/01/01 10:04:32;;;;;;;17.23;16.47;;;;;;;;;;5097753;28;20522;-83
2024/01/01 10:07:01;;;;;;;18.37;17.10;;;;;;;;;;5097058;28;20473;-82
2024/01/01 10:09:28;;;;;;;18.20;16.97;;;;;;;;;;5099007;28;20408;-83
2024/01/01 10:12:06;;;;;;;19.43;17.63;;;;;;;;;;5083343;28;20457;-80
2024/01/01 10:14:33;;;;;;;17.57;16.67;;;;;;;;;;5078762;28;20438;-80
2024/01/01 10:17:11;;;;;;;20.03;18.33;;;;;;;;;;5084474;28;20476;-81
2024/01/01 10:19:49;;;;;;;17.90;16.90;;;;;;;;;;5100315;28;20452;-79
2024/01/01 10:22:18;;;;;;;17.20;16.20;;;;;;;;;;5096545;28;20484;-78
2024/01/01 10:24:45;;;;;;;17.73;16.80;;;;;;;;;;5093528;28;20441;-79
2024/01/01 10:27:12;;;;;;;17.23;16.40;;;;;;;;;;5093517;28;20849;-76
2024/01/01 10:29:39;;;;;;;15.87;15.17;;;;;;;;;;5090450;28;20489;-76
2024/01/01 10:32:08;;;;;;;18.63;17.20;;;;;;;;;;5082259;28;20450;-77
2024/01/01 10:34:37;;;;;;;16.10;15.40;;;;;;;;;;5090010;28;20477;-75
2024/01/01 10:37:04;;;;;;;16.33;15.63;;;;;;;;;;5080543;28;20460;-76
2024/01/01 10:39:33;;;;;;;17.60;16.60;;;;;;;;;;5096076;28;20941;-80
2024/01/01 10:42:02;;;;;;;17.50;16.37;;;;;;;;;;5099866;28;20468;-81
2024/01/01 10:44:29;;;;;;;17.97;16.80;;;;;;;;;;5098889;28;20492;-81
2024/01/01 10:46:57;;;;;;;17.30;16.50;;;;;;;;;;5088780;28;20712;-81
2024/01/01 10:49:26;;;;;;;17.63;16.27;;;;;;;;;;5075342;28;20552;-81
2024/01/01 10:52:00;;;;;;;17.97;16.80;;;;;;;;;;5069484;28;20453;-76
2024/01/01 10:54:41;;;;;;;16.47;15.37;;;;;;;;;;5080915;28;20448;-77
2024/01/01 10:57:14;;;;;;;18.20;16.77;;;;;;;;;;5089721;28;20495;-76
2024/01/01 10:59:45;;;;;;;17.57;16.53;;;;;;;;;;5091331;28;20452;-76
2024/01/01 11:02:12;;;;;;;18.33;17.40;;;;;;;;;;5093640;28;20448;-76
2024/01/01 11:04:39;;;;;;;18.63;17.60;;;;;;;;;;5093487;28;20508;-76
2024/01/01 11:07:06;;;;;;;17.67;16.70;;;;;;;;;;5093717;28;20469;-77
2024/01/01 11:09:35;;;;;;;17.53;16.63;;;;;;;;;;5083174;28;20416;-76
2024/01/01 11:12:02;;;;;;;16.73;15.93;;;;;;;;;;5089425;28;20539;-76
2024/01/01 11:14:30;;;;;;;16.70;15.90;;;;;;;;;;5093917;28;20521;-76
2024/01/01 11:16:57;;;;;;;18.20;17.30;;;;;;;;;;5093531;28;20473;-76
2024/01/01 11:19:41;;;;;;;16.20;15.50;;;;;;;;;;5093860;28;20440;-76
2024/01/01 11:22:30;;;;;;;17.77;16.57;;;;;;;;;;5093556;28;20498;-76
2024/01/01 11:25:00;;;;;;;17.73;16.77;;;;;;;;;;5093726;28;20917;-76
2024/01/01 11:27:27;;;;;;;18.00;16.37;;;;;;;;;;5092914;28;20563;-76
2024/01/01 11:29:54;;;;;;;17.80;16.67;;;;;;;;;;5093711;28;20444;-76
2024/01/01 11:32:22;;;;;;;17.77;16.80;;;;;;;;;;5092861;28;20419;-76
2024/01/01 11:35:03;;;;;;;16.70;15.90;;;;;;;;;;5093340;28;20445;-77
2024/01/01 11:37:30;;;;;;;17.60;16.63;;;;;;;;;;5093308;28;20464;-76
2024/01/01 11:39:59;;;;;;;16.90;16.10;;;;;;;;;;5092711;28;20464;-76
2024/01/01 11:42:26;;;;;;;17.70;16.70;;;;;;;;;;5092958;28;20979;-76
2024/01/01 11:45:05;;;;;;;17.23;16.33;;;;;;;;;;5093128;28;21177;-76
2024/01/01 11:47:32;;;;;;;16.97;16.07;;;;;;;;;;5092849;28;20529;-76
2024/01/01 11:49:59;;;;;;;18.03;17.10;;;;;;;;;;5092636;28;20445;-76
2024/01/01 11:52:26;;;;;;;19.50;18.07;;;;;;;;;;5092303;28;20835;-77
2024/01/01 11:54:53;;;;;;;18.93;17.63;;;;;;;;;;5091291;28;20445;-76
2024/01/01 11:57:22;;;;;;;19.30;18.30;;;;;;;;;;5089184;28;20538;-76
2024/01/01 11:59:49;;;;;;;20.30;19.10;;;;;;;;;;5092915;28;20453;-76
2024/01/01 12:02:17;;;;;;;19.93;18.90;;;;;;;;;;5092191;28;20444;-76
2024/01/01 12:04:45;;;;;;;19.83;18.77;;;;;;;;;;5092575;28;20496;-76
2024/01/01 12:07:12;;;;;;;19.27;17.83;;;;;;;;;;5092579;28;20443;-76
2024/01/01 12:09:39;;;;;;;18.50;17.37;;;;;;;;;;5092816;28;20429;-77
2024/01/01 12:12:06;;;;;;;18.80;17.53;;;;;;;;;;5091902;28;20419;-76
2024/01/01 12:14:34;;;;;;;19.63;18.43;;;;;;;;;;5092587;28;20444;-77
2024/01/01 12:17:01;;;;;;;18.80;17.70;;;;;;;;;;5091659;28;20516;-76
2024/01/01 12:19:29;;;;;;;17.57;16.67;;;;;;;;;;5091985;28;20984;-76
2024/01/01 12:21:56;;;;;;;18.30;17.40;;;;;;;;;;5091666;28;20783;-77
2024/01/01 12:24:23;;;;;;;19.77;18.47;;;;;;;;;;5092049;28;20485;-76
2024/01/01 12:26:51;;;;;;;18.37;17.17;;;;;;;;;;5091658;28;20509;-77
2024/01/01 12:29:19;;;;;;;16.33;15.63;;;;;;;;;;5092398;28;20433;-77
2024/01/01 12:31:48;;;;;;;18.40;17.30;;;;;;;;;;5092836;28;20441;-79
2024/01/01 12:34:15;;;;;;;17.50;16.70;;;;;;;;;;5071856;28;20412;-77
2024/01/01 12:36:43;;;;;;;17.83;16.40;;;;;;;;;;5071581;28;20465;-77
2024/01/01 12:39:11;;;;;;;18.73;17.77;;;;;;;;;;5075891;28;20479;-77
2024/01/01 12:41:38;;;;;;;18.80;17.33;;;;;;;;;;5091489;28;20496;-77
2024/01/01 12:44:05;;;;;;;17.37;16.37;;;;;;;;;;5077687;28;20452;-77
2024/01/01 12:46:32;;;;;;;19.40;18.00;;;;;;;;;;5071930;28;20523;-77
2024/01/01 12:49:01;;;;;;;17.97;16.97;;;;;;;;;;5071329;28;20989;-77
2024/01/01 12:51:28;;;;;;;18.93;17.73;;;;;;;;;;5070511;28;20555;-77
2024/01/01 12:53:57;;;;;;;17.83;16.93;;;;;;;;;;5071915;28;20458;-77
2024/01/01 12:56:24;;;;;;;17.57;16.77;;;;;;;;;;5081178;28;20803;-77
2024/01/01 12:58:51;;;;;;;20.43;18.93;;;;;;;;;;5091958;28;20783;-76
2024/01/01 13:01:18;;;;;;;20.97;19.73;;;;;;;;;;5091362;28;20906;-81
2024/01/01 13:03:46;;;;;;;21.37;19.57;;;;;;;;;;5090375;28;20536;-89
2024/01/01 13:06:16;;;;;;;19.47;18.57;;;;;;;;;;5079143;28;20491;-78
2024/01/01 13:08:44;;;;;;;19.80;18.57;;;;;;;;;;5072582;28;20494;-78
2024/01/01 13:11:11;;;;;;;21.47;20.30;;;;;;;;;;5071694;28;20462;-78
2024/01/01 13:13:39;;;;;;;21.50;20.30;;;;;;;;;;5073133;28;20450;-78
2024/01/01 13:16:06;;;;;;;19.37;18.37;;;;;;;;;;5072921;28;20445;-78
2024/01/01 13:18:34;;;;;;;19.77;18.47;;;;;;;;;;5072655;28;20504;-78
2024/01/01 13:21:02;;;;;;;19.57;18.57;;;;;;;;;;5071217;28;20557;-78
2024/01/01 13:23:30;;;;;;;20.37;19.33;;;;;;;;;;5072202;28;20474;-78
2024/01/01 13:25:58;;;;;;;22.33;20.93;;;;;;;;;;5071649;28;20442;-78
2024/01/01 13:28:25;;;;;;;21.70;20.60;;;;;;;;;;5070789;28;20484;-79
2024/01/01 13:30:52;;;;;;;21.90;20.30;;;;;;;;;;5070870;28;20520;-78
2024/01/01 13:33:19;;;;;;;23.20;21.83;;;;;;;;;;5071123;28;20449;-78
2024/01/01 13:35:46;;;;;;;23.57;21.90;;;;;;;;;;5070755;28;20503;-78
2024/01/01 13:38:13;;;;;;;23.50;21.97;;;;;;;;;;5071669;28;20444;-78
2024/01/01 13:40:41;;;;;;;23.07;21.77;;;;;;;;;;5085865;28;20506;-78
2024/01/01 13:43:09;;;;;;;22.67;21.07;;;;;;;;;;5090871;28;20464;-77
2024/01/01 13:45:36;;;;;;;24.27;22.57;;;;;;;;;;5090930;28;20495;-78
2024/01/01 13:48:04;;;;;;;22.60;21.30;;;;;;;;;;5090035;28;20478;-78
2024/01/01 13:50:31;;;;;;;25.47;23.37;;;;;;;;;;5090105;28;21052;-78
2024/01/01 13:53:03;;;;;;;27.13;25.20;;;;;;;;;;5071081;28;20497;-78
2024/01/01 13:55:30;;;;;;;22.77;21.40;;;;;;;;;;5069546;28;20491;-78
2024/01/01 13:57:59;;;;;;;20.33;19.33;;;;;;;;;;5089435;28;20477;-78
2024/01/01 14:00:27;;;;;;;25.10;23.20;;;;;;;;;;5090170;28;20522;-78
2024/01/01 14:02:54;;;;;;;23.87;22.40;;;;;;;;;;5090886;28;20912;-78
2024/01/01 14:05:21;;;;;;;20.27;19.27;;;;;;;;;;5090076;28;20493;-78
2024/01/01 14:07:48;;;;;;;25.83;23.73;;;;;;;;;;5089526;28;20573;-77
2024/01/01 14:10:16;;;;;;;21.40;20.30;;;;;;;;;;5090477;28;20457;-77
2024/01/01 14:12:43;;;;;;;23.33;21.90;;;;;;;;;;5089469;28;20449;-77
2024/01/01 14:15:11;;;;;;;23.07;21.30;;;;;;;;;;5090166;28;20500;-78
2024/01/01 14:17:38;;;;;;;21.10;20.10;;;;;;;;;;5090271;28;20479;-78
2024/01/01 14:20:06;;;;;;;25.40;23.70;;;;;;;;;;5069723;28;20485;-78